Time;durP1;ratioP1;P1;durP2;ratioP2;P2;SDS_P1;SDS_P2;PMS_P1;PMS_P2;Temp;Humidity;BMP_temperature;BMP_pressure;BME280_temperature;BME280_humidity;BME280_pressure;Samples;Min_cycle;Max_cycle;Signal;HPM_P1;HPM_P2
2023/09/23 00:00:56;;;;;;;6.35;3.42;;;;;;;;;;4944223;29;20074;-84
2023/09/23 00:03:23;;;;;;;5.72;3.22;;;;;;;;;;4946501;29;20043;-84
2023/09/23 00:05:50;;;;;;;5.15;3.45;;;;;;;;;;4944819;29;20130;-82
2023/09/23 00:08:18;;;;;;;5.03;3.40;;;;;;;;;;4944704;28;20039;-84
2023/09/23 00:10:44;;;;;;;4.65;3.53;;;;;;;;;;4946463;28;20150;-85
2023/09/23 00:13:10;;;;;;;5.57;4.00;;;;;;;;;;4945192;29;20138;-82
2023/09/23 00:15:41;;;;;;;6.88;3.90;;;;;;;;;;4960103;28;20134;-80
2023/09/23 00:18:07;;;;;;;5.78;3.70;;;;;;;;;;4958942;28;20055;-83
2023/09/23 00:20:33;;;;;;;5.03;3.28;;;;;;;;;;4928299;29;21601;-83
2023/09/23 00:22:59;;;;;;;5.97;3.25;;;;;;;;;;4958496;28;20267;-84
2023/09/23 00:25:25;;;;;;;4.25;2.70;;;;;;;;;;4949968;28;20121;-82
2023/09/23 00:27:54;;;;;;;4.00;2.67;;;;;;;;;;4944314;29;20054;-84
2023/09/23 00:30:22;;;;;;;3.13;2.40;;;;;;;;;;4927526;29;20554;-82
2023/09/23 00:32:49;;;;;;;3.63;2.05;;;;;;;;;;4946891;28;20585;-81
2023/09/23 00:35:15;;;;;;;3.60;2.20;;;;;;;;;;4958477;28;20044;-84
2023/09/23 00:37:42;;;;;;;2.97;1.90;;;;;;;;;;4960225;28;20047;-83
2023/09/23 00:40:17;;;;;;;3.67;2.40;;;;;;;;;;4942791;29;20510;-81
2023/09/23 00:42:44;;;;;;;2.80;1.85;;;;;;;;;;4946031;29;20780;-82
2023/09/23 00:45:15;;;;;;;4.63;2.42;;;;;;;;;;4958397;28;20710;-83
2023/09/23 00:47:41;;;;;;;3.20;2.38;;;;;;;;;;4945559;29;20055;-84
2023/09/23 00:50:18;;;;;;;3.22;1.80;;;;;;;;;;4957374;28;20058;-82
2023/09/23 00:52:44;;;;;;;3.58;1.95;;;;;;;;;;4954835;28;20068;-83
2023/09/23 00:55:10;;;;;;;3.28;1.80;;;;;;;;;;4964429;28;20403;-84
2023/09/23 00:57:37;;;;;;;2.63;1.85;;;;;;;;;;4952501;28;20031;-82
2023/09/23 01:00:06;;;;;;;2.85;1.95;;;;;;;;;;4947368;28;20050;-82
2023/09/23 01:02:34;;;;;;;3.28;1.90;;;;;;;;;;4963947;28;20035;-81
2023/09/23 01:05:00;;;;;;;2.78;2.03;;;;;;;;;;4956587;28;20046;-80
2023/09/23 01:07:27;;;;;;;5.40;1.85;;;;;;;;;;4963632;28;20525;-84
2023/09/23 01:09:53;;;;;;;5.30;1.90;;;;;;;;;;4944968;28;20046;-82
2023/09/23 01:12:19;;;;;;;3.03;1.88;;;;;;;;;;4964333;28;20049;-82
2023/09/23 01:14:45;;;;;;;2.33;1.40;;;;;;;;;;4978056;28;20137;-84
2023/09/23 01:17:11;;;;;;;3.80;1.80;;;;;;;;;;4978432;28;20122;-83
2023/09/23 01:19:37;;;;;;;4.03;1.77;;;;;;;;;;4961939;28;20031;-83
2023/09/23 01:22:03;;;;;;;3.22;1.50;;;;;;;;;;4964212;28;20051;-83
2023/09/23 01:24:30;;;;;;;3.70;1.70;;;;;;;;;;4945470;28;20083;-81
2023/09/23 01:26:56;;;;;;;2.40;1.40;;;;;;;;;;4945345;28;20106;-81
2023/09/23 01:29:23;;;;;;;2.40;1.40;;;;;;;;;;4962852;28;20736;-81
2023/09/23 01:32:10;;;;;;;3.50;1.25;;;;;;;;;;4963783;28;20122;-81
2023/09/23 01:34:36;;;;;;;1.70;1.30;;;;;;;;;;4958763;28;20047;-80
2023/09/23 01:37:03;;;;;;;1.80;1.33;;;;;;;;;;4955854;28;20146;-83
2023/09/23 01:39:29;;;;;;;1.95;1.20;;;;;;;;;;4946192;28;20072;-81
2023/09/23 01:41:55;;;;;;;2.80;1.63;;;;;;;;;;4961100;28;20046;-84
2023/09/23 01:44:21;;;;;;;1.90;1.58;;;;;;;;;;4945930;28;20431;-84
2023/09/23 01:46:47;;;;;;;1.60;1.45;;;;;;;;;;4945009;28;20045;-80
2023/09/23 01:49:16;;;;;;;2.28;1.40;;;;;;;;;;4945725;28;20055;-84
2023/09/23 01:51:44;;;;;;;5.45;2.20;;;;;;;;;;4943166;28;20083;-83
2023/09/23 01:54:15;;;;;;;4.00;1.80;;;;;;;;;;4955012;28;20046;-78
2023/09/23 01:56:41;;;;;;;2.35;1.52;;;;;;;;;;4944061;28;20472;-81
2023/09/23 01:59:09;;;;;;;1.88;1.40;;;;;;;;;;4944978;28;20043;-79
2023/09/23 02:01:35;;;;;;;3.88;1.42;;;;;;;;;;4946020;28;20035;-80
2023/09/23 02:04:01;;;;;;;6.60;1.60;;;;;;;;;;4944729;28;20057;-81
2023/09/23 02:06:32;;;;;;;3.75;1.40;;;;;;;;;;4962464;28;20093;-79
2023/09/23 02:08:58;;;;;;;2.85;1.50;;;;;;;;;;4945574;28;20050;-80
2023/09/23 02:11:24;;;;;;;4.63;1.60;;;;;;;;;;4944525;28;20054;-81
2023/09/23 02:13:51;;;;;;;4.85;1.83;;;;;;;;;;4945440;28;20050;-80
2023/09/23 02:16:18;;;;;;;2.63;1.60;;;;;;;;;;4944477;28;20169;-83
2023/09/23 02:18:48;;;;;;;4.82;2.30;;;;;;;;;;4946435;28;20046;-84
2023/09/23 02:21:15;;;;;;;3.13;2.35;;;;;;;;;;4949670;28;20809;-83
2023/09/23 02:23:41;;;;;;;3.63;2.78;;;;;;;;;;4932570;29;20047;-82
2023/09/23 02:26:07;;;;;;;5.30;3.90;;;;;;;;;;4958593;28;20122;-81
2023/09/23 02:28:33;;;;;;;7.22;4.28;;;;;;;;;;4977401;28;20064;-82
2023/09/23 02:30:59;;;;;;;7.82;5.15;;;;;;;;;;4976998;28;20060;-79
2023/09/23 02:33:26;;;;;;;6.72;4.88;;;;;;;;;;4962654;28;20113;-81
2023/09/23 02:35:52;;;;;;;5.97;5.20;;;;;;;;;;4956588;28;20459;-82
2023/09/23 02:38:19;;;;;;;7.93;5.28;;;;;;;;;;4953670;28;20123;-83
2023/09/23 02:40:46;;;;;;;8.05;6.30;;;;;;;;;;4945076;28;20047;-83
2023/09/23 02:43:12;;;;;;;7.85;5.43;;;;;;;;;;4962637;28;20039;-83
2023/09/23 02:45:38;;;;;;;6.65;5.47;;;;;;;;;;4963158;28;20126;-81
2023/09/23 02:48:04;;;;;;;8.05;5.80;;;;;;;;;;4944643;28;20063;-83
2023/09/23 02:50:30;;;;;;;7.95;5.80;;;;;;;;;;4952636;28;20051;-83
2023/09/23 02:52:56;;;;;;;7.00;5.55;;;;;;;;;;4943167;28;20050;-84
2023/09/23 02:55:22;;;;;;;8.52;6.13;;;;;;;;;;4942809;28;20034;-83
2023/09/23 02:57:49;;;;;;;8.63;5.90;;;;;;;;;;4963302;28;20118;-81
2023/09/23 03:00:17;;;;;;;6.90;5.20;;;;;;;;;;4960689;28;20249;-82
2023/09/23 03:02:45;;;;;;;6.77;5.80;;;;;;;;;;4963463;28;20531;-81
2023/09/23 03:05:13;;;;;;;7.80;5.55;;;;;;;;;;4976597;28;20097;-84
2023/09/23 03:07:40;;;;;;;6.20;5.13;;;;;;;;;;4945415;28;20050;-82
2023/09/23 03:10:12;;;;;;;8.20;5.25;;;;;;;;;;4944226;28;20411;-84
2023/09/23 03:12:43;;;;;;;6.63;5.70;;;;;;;;;;4932052;28;20035;-84
2023/09/23 03:15:14;;;;;;;10.32;5.95;;;;;;;;;;4945237;28;20086;-82
2023/09/23 03:17:42;;;;;;;7.75;5.85;;;;;;;;;;4947675;28;20054;-84
2023/09/23 03:20:10;;;;;;;12.40;6.82;;;;;;;;;;4962434;28;20050;-83
2023/09/23 03:22:36;;;;;;;8.18;6.25;;;;;;;;;;4944335;28;20047;-85
2023/09/23 03:25:03;;;;;;;7.88;6.78;;;;;;;;;;4943492;28;20058;-80
2023/09/23 03:27:29;;;;;;;8.57;7.22;;;;;;;;;;4944123;28;20074;-81
2023/09/23 03:29:56;;;;;;;9.35;7.47;;;;;;;;;;4961238;28;20078;-80
2023/09/23 03:32:23;;;;;;;10.18;7.80;;;;;;;;;;4961197;28;20097;-83
2023/09/23 03:34:50;;;;;;;12.30;8.10;;;;;;;;;;4945578;28;20511;-80
2023/09/23 03:37:16;;;;;;;11.02;8.27;;;;;;;;;;4948718;28;20087;-82
2023/09/23 03:39:42;;;;;;;9.95;8.38;;;;;;;;;;4963533;28;20046;-84
2023/09/23 03:42:09;;;;;;;10.38;8.30;;;;;;;;;;4965225;28;20053;-83
2023/09/23 03:44:35;;;;;;;13.60;8.93;;;;;;;;;;4947396;28;20042;-83
2023/09/23 03:47:01;;;;;;;13.88;9.82;;;;;;;;;;4947043;28;20078;-81
2023/09/23 03:49:28;;;;;;;15.77;9.82;;;;;;;;;;4966125;28;20059;-82
2023/09/23 03:51:54;;;;;;;13.63;10.82;;;;;;;;;;4944758;28;20042;-81
2023/09/23 03:54:20;;;;;;;15.15;10.38;;;;;;;;;;4966013;28;20047;-83
2023/09/23 03:56:46;;;;;;;12.93;10.48;;;;;;;;;;4963452;28;20050;-82
2023/09/23 03:59:12;;;;;;;14.93;11.13;;;;;;;;;;4965119;28;20055;-83
2023/09/23 04:01:39;;;;;;;17.95;12.45;;;;;;;;;;4946751;28;20050;-84
2023/09/23 04:04:07;;;;;;;13.73;11.48;;;;;;;;;;4965800;28;20043;-81
2023/09/23 04:06:33;;;;;;;14.20;11.55;;;;;;;;;;4963945;28;20050;-83
2023/09/23 04:08:59;;;;;;;16.42;11.88;;;;;;;;;;4964479;28;20113;-83
2023/09/23 04:11:26;;;;;;;14.88;11.75;;;;;;;;;;4964060;28;20495;-84
2023/09/23 04:13:53;;;;;;;17.08;12.27;;;;;;;;;;4964025;28;20054;-82
2023/09/23 04:16:22;;;;;;;13.85;11.65;;;;;;;;;;4977897;28;20055;-82
2023/09/23 04:18:51;;;;;;;15.25;12.82;;;;;;;;;;4963762;28;20105;-83
2023/09/23 04:21:17;;;;;;;16.48;12.77;;;;;;;;;;4947069;28;20055;-80
2023/09/23 04:23:43;;;;;;;17.80;13.27;;;;;;;;;;4963980;28;20162;-81
2023/09/23 04:26:12;;;;;;;17.90;13.63;;;;;;;;;;4946696;28;20046;-83
2023/09/23 04:28:38;;;;;;;17.13;14.02;;;;;;;;;;4947819;28;20054;-83
2023/09/23 04:31:04;;;;;;;18.77;13.98;;;;;;;;;;4946629;28;20161;-81
2023/09/23 04:33:31;;;;;;;17.52;13.77;;;;;;;;;;4962921;28;20055;-82
2023/09/23 04:35:58;;;;;;;17.27;14.05;;;;;;;;;;4945939;28;20051;-82
2023/09/23 04:38:24;;;;;;;18.45;14.25;;;;;;;;;;4965011;28;20062;-79
2023/09/23 04:40:50;;;;;;;17.88;14.80;;;;;;;;;;4961370;28;20163;-82
2023/09/23 04:43:16;;;;;;;17.10;14.18;;;;;;;;;;4963460;28;20051;-81
2023/09/23 04:45:45;;;;;;;18.08;15.00;;;;;;;;;;4978002;28;20053;-83
2023/09/23 04:48:10;;;;;;;21.23;15.88;;;;;;;;;;4979580;28;20042;-81
2023/09/23 04:50:39;;;;;;;20.83;14.95;;;;;;;;;;4975926;28;20047;-80
2023/09/23 04:53:07;;;;;;;;;;;;;;;;;;4960443;28;20598;-81
2023/09/23 04:55:33;;;;;;;20.20;15.07;;;;;;;;;;4960268;28;20234;-80
2023/09/23 04:57:59;;;;;;;20.00;15.38;;;;;;;;;;4930175;28;20050;-82
2023/09/23 05:00:26;;;;;;;18.13;14.13;;;;;;;;;;4945898;28;20062;-82
2023/09/23 05:02:52;;;;;;;17.08;14.90;;;;;;;;;;4949940;28;20540;-82
2023/09/23 05:05:19;;;;;;;18.63;14.02;;;;;;;;;;4947321;28;20626;-81
2023/09/23 05:07:45;;;;;;;17.50;14.57;;;;;;;;;;4963387;28;20487;-80
2023/09/23 05:10:12;;;;;;;21.08;14.82;;;;;;;;;;4963228;28;20063;-81
2023/09/23 05:12:40;;;;;;;17.55;14.35;;;;;;;;;;4931123;28;20077;-82
2023/09/23 05:15:09;;;;;;;17.45;13.95;;;;;;;;;;4962060;28;20077;-83
2023/09/23 05:17:36;;;;;;;18.50;13.57;;;;;;;;;;4947248;28;20055;-83
2023/09/23 05:20:11;;;;;;;18.13;14.10;;;;;;;;;;4962805;28;20110;-83
2023/09/23 05:22:38;;;;;;;16.00;13.60;;;;;;;;;;4964439;28;20043;-84
2023/09/23 05:25:05;;;;;;;15.98;13.88;;;;;;;;;;4962655;28;20043;-81
2023/09/23 05:27:32;;;;;;;16.00;14.27;;;;;;;;;;4946744;28;20562;-84
2023/09/23 05:29:58;;;;;;;17.90;14.65;;;;;;;;;;4962577;28;20097;-82
2023/09/23 05:32:24;;;;;;;17.67;14.95;;;;;;;;;;4961666;28;20046;-82
2023/09/23 05:34:52;;;;;;;18.67;15.20;;;;;;;;;;4979044;28;20415;-81
2023/09/23 05:37:18;;;;;;;;;;;;;;;;;;4957474;28;20106;-81
2023/09/23 05:39:45;;;;;;;20.35;14.45;;;;;;;;;;4946209;28;19930;-83
2023/09/23 05:42:13;;;;;;;20.80;16.25;;;;;;;;;;4962506;28;20062;-83
2023/09/23 05:44:39;;;;;;;19.20;15.98;;;;;;;;;;4963412;28;20146;-82
2023/09/23 05:47:05;;;;;;;20.23;15.27;;;;;;;;;;4945409;28;20082;-82
2023/09/23 05:49:31;;;;;;;21.83;16.67;;;;;;;;;;4929462;28;20120;-83
2023/09/23 05:51:57;;;;;;;20.13;16.40;;;;;;;;;;4945616;28;20882;-79
2023/09/23 05:54:23;;;;;;;21.50;17.05;;;;;;;;;;4945348;28;20051;-84
2023/09/23 05:56:49;;;;;;;23.05;17.77;;;;;;;;;;4944472;28;20125;-82
2023/09/23 05:59:15;;;;;;;25.48;18.08;;;;;;;;;;4944924;28;20054;-81
2023/09/23 06:01:42;;;;;;;25.67;19.23;;;;;;;;;;4963413;28;20057;-83
2023/09/23 06:04:13;;;;;;;29.10;19.27;;;;;;;;;;4944741;28;20054;-83
2023/09/23 06:06:40;;;;;;;29.83;20.25;;;;;;;;;;4930058;28;20051;-83
2023/09/23 06:09:06;;;;;;;29.45;20.50;;;;;;;;;;4961959;28;20050;-82
2023/09/23 06:11:35;;;;;;;31.27;21.45;;;;;;;;;;4944282;28;20054;-82
2023/09/23 06:14:01;;;;;;;33.00;22.58;;;;;;;;;;4945279;28;20043;-82
2023/09/23 06:16:27;;;;;;;32.55;23.45;;;;;;;;;;4946716;28;20082;-82
2023/09/23 06:18:53;;;;;;;35.47;24.02;;;;;;;;;;4933640;28;20043;-82
2023/09/23 06:21:22;;;;;;;33.90;24.98;;;;;;;;;;4961889;28;20081;-83
2023/09/23 06:23:48;;;;;;;39.88;27.17;;;;;;;;;;4946167;28;20059;-81
2023/09/23 06:26:14;;;;;;;42.58;29.83;;;;;;;;;;4959901;28;20058;-82
2023/09/23 06:28:40;;;;;;;47.50;30.25;;;;;;;;;;4945729;28;20582;-83
2023/09/23 06:31:10;;;;;;;44.25;30.42;;;;;;;;;;4943774;28;20047;-81
2023/09/23 06:33:36;;;;;;;40.88;29.77;;;;;;;;;;4963147;28;20047;-82
2023/09/23 06:36:04;;;;;;;43.72;30.83;;;;;;;;;;4962739;28;20086;-84
2023/09/23 06:38:30;;;;;;;39.00;28.80;;;;;;;;;;4961153;28;20043;-83
2023/09/23 06:40:56;;;;;;;37.67;29.48;;;;;;;;;;4944833;28;20047;-83
2023/09/23 06:43:27;;;;;;;40.92;29.70;;;;;;;;;;4962411;28;20047;-80
2023/09/23 06:45:56;;;;;;;38.53;29.00;;;;;;;;;;4941838;28;20043;-80
2023/09/23 06:48:23;;;;;;;36.70;28.25;;;;;;;;;;4962145;28;20054;-81
2023/09/23 06:50:59;;;;;;;38.13;28.33;;;;;;;;;;4962472;28;20055;-82
2023/09/23 06:53:25;;;;;;;35.67;28.90;;;;;;;;;;4974528;28;20061;-81
2023/09/23 06:55:51;;;;;;;37.05;27.70;;;;;;;;;;4976557;28;20458;-80
2023/09/23 06:58:17;;;;;;;35.40;27.88;;;;;;;;;;4966461;28;20051;-82
2023/09/23 07:00:43;;;;;;;31.80;26.55;;;;;;;;;;4976558;28;20051;-82
2023/09/23 07:03:09;;;;;;;32.35;27.20;;;;;;;;;;4974451;28;20054;-83
2023/09/23 07:05:35;;;;;;;33.53;26.20;;;;;;;;;;4975604;28;20085;-84
2023/09/23 07:08:02;;;;;;;32.13;27.13;;;;;;;;;;4977860;28;20835;-85
2023/09/23 07:10:28;;;;;;;30.33;26.25;;;;;;;;;;4963278;28;20403;-83
2023/09/23 07:12:54;;;;;;;36.67;27.90;;;;;;;;;;4966749;28;20500;-84
2023/09/23 07:15:20;;;;;;;34.63;28.02;;;;;;;;;;4963101;28;20054;-84
2023/09/23 07:17:46;;;;;;;33.13;26.58;;;;;;;;;;4960877;28;20082;-81
2023/09/23 07:20:12;;;;;;;32.47;27.15;;;;;;;;;;4981724;28;20062;-82
2023/09/23 07:22:38;;;;;;;30.85;25.65;;;;;;;;;;4964674;28;20089;-80
2023/09/23 07:25:05;;;;;;;27.73;24.33;;;;;;;;;;4965320;28;20652;-81
2023/09/23 07:27:31;;;;;;;29.88;26.10;;;;;;;;;;4947959;28;20181;-80
2023/09/23 07:29:57;;;;;;;30.42;24.95;;;;;;;;;;4966112;28;20046;-83
2023/09/23 07:32:23;;;;;;;28.73;25.63;;;;;;;;;;4951868;28;20071;-84
2023/09/23 07:34:49;;;;;;;33.55;25.95;;;;;;;;;;4950136;28;20059;-83
2023/09/23 07:37:15;;;;;;;28.48;24.38;;;;;;;;;;4970402;28;20080;-81
2023/09/23 07:39:41;;;;;;;28.15;24.50;;;;;;;;;;4975955;28;20039;-84
2023/09/23 07:42:07;;;;;;;27.70;23.15;;;;;;;;;;4965873;28;20031;-83
2023/09/23 07:44:33;;;;;;;26.83;23.83;;;;;;;;;;4947777;28;20123;-81
2023/09/23 07:46:59;;;;;;;24.27;21.60;;;;;;;;;;4965217;28;20090;-83
2023/09/23 07:49:25;;;;;;;27.02;22.65;;;;;;;;;;4939849;29;20083;-80
2023/09/23 07:51:53;;;;;;;24.80;21.67;;;;;;;;;;4950870;28;20106;-83
2023/09/23 07:54:19;;;;;;;23.58;19.90;;;;;;;;;;4939687;28;20126;-82
2023/09/23 07:56:46;;;;;;;23.55;21.05;;;;;;;;;;4930318;29;20055;-85
2023/09/23 07:59:12;;;;;;;24.70;21.00;;;;;;;;;;4912597;29;20047;-84
2023/09/23 08:01:38;;;;;;;23.05;20.55;;;;;;;;;;4945442;29;20066;-84
2023/09/23 08:04:04;;;;;;;23.60;19.98;;;;;;;;;;4946654;29;20500;-83
2023/09/23 08:06:30;;;;;;;22.23;19.17;;;;;;;;;;4946983;28;20495;-82
2023/09/23 08:08:56;;;;;;;20.75;18.65;;;;;;;;;;4932452;28;20050;-82
2023/09/23 08:11:22;;;;;;;20.45;18.27;;;;;;;;;;4953398;28;20610;-82
2023/09/23 08:13:49;;;;;;;22.33;18.55;;;;;;;;;;4946151;29;20055;-84
2023/09/23 08:16:15;;;;;;;19.13;17.13;;;;;;;;;;4959064;28;20047;-83
2023/09/23 08:18:41;;;;;;;20.73;17.48;;;;;;;;;;4946099;29;20054;-85
2023/09/23 08:21:07;;;;;;;20.13;17.55;;;;;;;;;;4959102;28;20181;-84
2023/09/23 08:23:33;;;;;;;19.48;16.30;;;;;;;;;;4945462;29;20051;-83
2023/09/23 08:25:59;;;;;;;20.58;17.00;;;;;;;;;;4924178;29;20043;-84
2023/09/23 08:28:25;;;;;;;19.02;15.90;;;;;;;;;;4959167;28;20039;-81
2023/09/23 08:30:55;;;;;;;17.60;15.80;;;;;;;;;;4912277;29;20047;-83
2023/09/23 08:33:21;;;;;;;19.58;15.70;;;;;;;;;;4959328;28;20055;-84
2023/09/23 08:35:48;;;;;;;18.27;14.68;;;;;;;;;;4949119;28;20062;-84
2023/09/23 08:38:14;;;;;;;15.48;13.82;;;;;;;;;;4944934;29;20047;-85
2023/09/23 08:40:42;;;;;;;18.55;14.02;;;;;;;;;;4927418;29;20064;-81
2023/09/23 08:43:08;;;;;;;16.98;14.60;;;;;;;;;;4960436;28;20054;-85
2023/09/23 08:45:39;;;;;;;17.20;13.65;;;;;;;;;;4927988;29;20074;-84
2023/09/23 08:48:06;;;;;;;16.20;13.30;;;;;;;;;;4960493;28;20492;-83
2023/09/23 08:50:32;;;;;;;13.15;11.50;;;;;;;;;;4957438;28;20453;-84
2023/09/23 08:52:59;;;;;;;12.18;10.95;;;;;;;;;;4933662;28;20053;-83
2023/09/23 08:55:27;;;;;;;13.30;11.90;;;;;;;;;;4910909;29;20070;-84
2023/09/23 08:57:55;;;;;;;13.13;10.55;;;;;;;;;;4960522;28;20069;-85
2023/09/23 09:00:21;;;;;;;13.43;10.48;;;;;;;;;;4959230;28;20051;-86
2023/09/23 09:02:50;;;;;;;16.30;10.25;;;;;;;;;;4921466;28;20661;-86
2023/09/23 09:05:16;;;;;;;11.80;9.05;;;;;;;;;;4948827;28;20044;-86
2023/09/23 09:07:42;;;;;;;15.18;10.43;;;;;;;;;;4927482;29;20054;-85
2023/09/23 09:10:08;;;;;;;14.00;10.27;;;;;;;;;;4946408;28;20058;-83
2023/09/23 09:12:34;;;;;;;13.80;9.75;;;;;;;;;;4957174;28;20043;-83
2023/09/23 09:15:00;;;;;;;10.75;9.65;;;;;;;;;;4927775;29;20500;-84
2023/09/23 09:17:26;;;;;;;15.63;10.88;;;;;;;;;;4926703;29;20431;-84
2023/09/23 09:19:52;;;;;;;11.18;9.80;;;;;;;;;;4944401;29;20059;-85
2023/09/23 09:22:22;;;;;;;11.77;9.65;;;;;;;;;;4944185;29;20091;-83
2023/09/23 09:24:48;;;;;;;12.52;9.57;;;;;;;;;;4925537;28;20154;-84
2023/09/23 09:27:14;;;;;;;11.85;10.00;;;;;;;;;;4927188;29;20086;-84
2023/09/23 09:29:41;;;;;;;11.02;9.88;;;;;;;;;;4926181;29;20043;-84
2023/09/23 09:32:08;;;;;;;11.75;9.77;;;;;;;;;;4927603;29;20752;-86
2023/09/23 09:34:39;;;;;;;11.40;9.45;;;;;;;;;;4909957;29;20081;-82
2023/09/23 09:37:06;;;;;;;9.48;8.55;;;;;;;;;;4928487;29;20518;-82
2023/09/23 09:39:36;;;;;;;12.70;9.55;;;;;;;;;;4926076;29;20043;-83
2023/09/23 09:42:03;;;;;;;11.30;8.90;;;;;;;;;;4910858;29;20047;-82
2023/09/23 09:44:29;;;;;;;10.90;8.27;;;;;;;;;;4959537;28;20051;-82
2023/09/23 09:46:56;;;;;;;12.10;7.95;;;;;;;;;;4943081;29;20039;-81
2023/09/23 09:49:23;;;;;;;11.27;8.48;;;;;;;;;;4951628;28;20095;-84
2023/09/23 09:51:49;;;;;;;10.25;7.95;;;;;;;;;;4945056;28;20093;-84
2023/09/23 09:54:20;;;;;;;11.57;6.30;;;;;;;;;;4968173;28;20117;-81
2023/09/23 09:56:47;;;;;;;10.10;6.78;;;;;;;;;;4976261;28;20135;-81
2023/09/23 09:59:26;;;;;;;10.13;6.55;;;;;;;;;;4945866;28;20058;-81
2023/09/23 10:01:52;;;;;;;8.40;5.82;;;;;;;;;;4945887;28;20656;-84
2023/09/23 10:04:21;;;;;;;8.60;5.85;;;;;;;;;;4968473;28;20043;-84
2023/09/23 10:06:54;;;;;;;8.57;5.70;;;;;;;;;;4945500;28;20046;-83
2023/09/23 10:09:32;;;;;;;8.30;5.50;;;;;;;;;;4961293;28;20043;-84
2023/09/23 10:11:59;;;;;;;8.35;4.68;;;;;;;;;;4945006;28;20066;-81
2023/09/23 10:14:28;;;;;;;6.25;4.53;;;;;;;;;;4945793;28;20066;-84
2023/09/23 10:17:03;;;;;;;6.47;4.70;;;;;;;;;;4950211;28;20041;-83
2023/09/23 10:19:33;;;;;;;6.90;4.07;;;;;;;;;;4933916;28;20051;-84
2023/09/23 10:22:08;;;;;;;7.53;4.90;;;;;;;;;;4962212;28;20219;-85
2023/09/23 10:24:35;;;;;;;8.40;4.43;;;;;;;;;;4950292;28;20051;-81
2023/09/23 10:27:06;;;;;;;7.20;4.75;;;;;;;;;;4960865;28;20588;-82
2023/09/23 10:29:41;;;;;;;6.65;3.90;;;;;;;;;;4962341;28;20051;-84
2023/09/23 10:32:14;;;;;;;9.07;4.25;;;;;;;;;;4962008;28;20086;-82
2023/09/23 10:34:50;;;;;;;7.18;4.45;;;;;;;;;;4961695;28;20852;-82
2023/09/23 10:37:32;;;;;;;7.78;4.47;;;;;;;;;;4950301;28;20207;-82
2023/09/23 10:40:13;;;;;;;7.85;4.03;;;;;;;;;;4949197;28;20137;-84
2023/09/23 10:42:44;;;;;;;7.65;3.90;;;;;;;;;;4961748;28;20084;-81
2023/09/23 10:45:12;;;;;;;8.95;4.40;;;;;;;;;;4974115;28;20065;-81
2023/09/23 10:47:38;;;;;;;8.23;3.75;;;;;;;;;;4970734;28;20054;-80
2023/09/23 10:50:06;;;;;;;5.90;3.42;;;;;;;;;;4936069;29;20054;-82
2023/09/23 10:52:32;;;;;;;7.60;3.53;;;;;;;;;;4946579;29;20054;-83
2023/09/23 10:54:58;;;;;;;9.15;3.20;;;;;;;;;;4946573;29;20083;-80
2023/09/23 10:57:24;;;;;;;9.07;3.00;;;;;;;;;;4946008;29;20047;-85
2023/09/23 10:59:51;;;;;;;7.20;2.67;;;;;;;;;;4960028;28;20083;-83
2023/09/23 11:02:18;;;;;;;8.02;2.38;;;;;;;;;;4946183;29;20573;-85
2023/09/23 11:04:48;;;;;;;8.65;2.65;;;;;;;;;;4929619;29;20043;-83
2023/09/23 11:07:15;;;;;;;8.35;2.67;;;;;;;;;;4929279;29;20097;-84
2023/09/23 11:09:43;;;;;;;5.20;2.72;;;;;;;;;;4945964;29;20078;-84
2023/09/23 11:12:12;;;;;;;4.80;2.70;;;;;;;;;;4946326;28;20630;-81
2023/09/23 11:14:38;;;;;;;;;;;;;;;;;;4913041;29;20427;-82
2023/09/23 11:17:04;;;;;;;5.97;2.65;;;;;;;;;;4942472;29;19923;-82
2023/09/23 11:19:30;;;;;;;7.28;2.63;;;;;;;;;;4960872;28;20050;-82
2023/09/23 11:21:56;;;;;;;4.68;2.42;;;;;;;;;;4930391;29;20054;-83
2023/09/23 11:24:22;;;;;;;8.68;2.72;;;;;;;;;;4960886;28;20039;-85
2023/09/23 11:26:48;;;;;;;6.40;2.53;;;;;;;;;;4933620;28;20054;-83
2023/09/23 11:29:15;;;;;;;7.13;2.30;;;;;;;;;;4935740;28;20087;-81
2023/09/23 11:31:41;;;;;;;8.98;2.45;;;;;;;;;;4945651;29;20055;-81
2023/09/23 11:34:07;;;;;;;5.32;1.95;;;;;;;;;;4946776;29;20250;-82
2023/09/23 11:36:33;;;;;;;6.18;2.13;;;;;;;;;;4943672;29;20134;-82
2023/09/23 11:39:01;;;;;;;3.05;1.65;;;;;;;;;;4947251;29;20059;-85
2023/09/23 11:41:27;;;;;;;4.55;1.83;;;;;;;;;;4912337;28;20047;-81
2023/09/23 11:43:53;;;;;;;8.25;1.75;;;;;;;;;;4921374;29;20055;-83
2023/09/23 11:46:21;;;;;;;4.88;1.60;;;;;;;;;;4927690;29;20098;-82
2023/09/23 11:48:48;;;;;;;5.78;1.60;;;;;;;;;;4962722;28;20178;-82
2023/09/23 11:51:15;;;;;;;6.30;1.90;;;;;;;;;;4965885;28;20050;-81
2023/09/23 11:53:41;;;;;;;4.35;1.55;;;;;;;;;;4946642;28;20058;-83
2023/09/23 11:56:07;;;;;;;10.15;1.77;;;;;;;;;;4947772;28;20050;-82
2023/09/23 11:58:33;;;;;;;5.75;1.63;;;;;;;;;;4958301;28;20131;-80
2023/09/23 12:01:02;;;;;;;3.22;1.30;;;;;;;;;;4959832;28;20059;-83
2023/09/23 12:03:28;;;;;;;5.45;1.67;;;;;;;;;;4947526;28;20057;-81
2023/09/23 12:05:54;;;;;;;5.75;1.48;;;;;;;;;;4948447;28;20861;-83
2023/09/23 12:08:20;;;;;;;6.78;1.60;;;;;;;;;;4948891;28;20766;-83
2023/09/23 12:10:47;;;;;;;5.55;1.70;;;;;;;;;;4946445;28;20125;-82
2023/09/23 12:13:13;;;;;;;3.60;1.40;;;;;;;;;;4978510;28;20052;-81
2023/09/23 12:15:40;;;;;;;5.63;1.63;;;;;;;;;;4948929;28;20045;-82
2023/09/23 12:18:06;;;;;;;3.65;1.27;;;;;;;;;;4952397;28;20066;-83
2023/09/23 12:20:40;;;;;;;4.93;1.30;;;;;;;;;;4972724;28;20051;-85
2023/09/23 12:23:15;;;;;;;6.07;1.63;;;;;;;;;;4957607;28;20050;-82
2023/09/23 12:25:42;;;;;;;4.28;1.45;;;;;;;;;;4971904;28;20047;-82
2023/09/23 12:28:08;;;;;;;6.38;1.70;;;;;;;;;;4975445;28;20577;-80
2023/09/23 12:30:34;;;;;;;4.10;1.50;;;;;;;;;;4952686;28;20047;-82
2023/09/23 12:33:03;;;;;;;5.97;1.73;;;;;;;;;;4964096;28;20049;-82
2023/09/23 12:35:38;;;;;;;4.60;1.80;;;;;;;;;;4963679;28;20494;-82
2023/09/23 12:38:04;;;;;;;8.43;2.38;;;;;;;;;;4962685;28;20516;-81
2023/09/23 12:40:32;;;;;;;6.32;1.85;;;;;;;;;;4963138;28;20122;-81
2023/09/23 12:42:57;;;;;;;3.33;1.13;;;;;;;;;;4964053;28;20841;-83
2023/09/23 12:45:23;;;;;;;4.53;1.10;;;;;;;;;;4964257;28;20055;-85
2023/09/23 12:47:50;;;;;;;2.50;1.00;;;;;;;;;;4947258;28;20055;-83
2023/09/23 12:50:16;;;;;;;4.70;1.00;;;;;;;;;;4963262;28;20213;-81
2023/09/23 12:52:42;;;;;;;1.98;0.90;;;;;;;;;;4960727;28;20562;-83
2023/09/23 12:55:09;;;;;;;4.82;0.90;;;;;;;;;;4963908;28;20118;-84
2023/09/23 12:57:35;;;;;;;4.78;1.02;;;;;;;;;;4957641;28;20077;-85
2023/09/23 13:00:03;;;;;;;2.92;1.08;;;;;;;;;;4962870;28;20454;-83
2023/09/23 13:02:29;;;;;;;3.92;1.05;;;;;;;;;;4958263;28;20059;-85
2023/09/23 13:04:55;;;;;;;2.63;1.30;;;;;;;;;;4947466;28;20384;-83
2023/09/23 13:07:21;;;;;;;3.85;1.10;;;;;;;;;;4946349;28;20057;-82
2023/09/23 13:09:47;;;;;;;2.63;1.10;;;;;;;;;;4945670;28;20043;-84
2023/09/23 13:12:13;;;;;;;3.35;1.20;;;;;;;;;;4963428;28;20475;-82
2023/09/23 13:14:39;;;;;;;4.35;1.00;;;;;;;;;;4946453;28;20589;-83
2023/09/23 13:17:06;;;;;;;3.72;1.10;;;;;;;;;;4962625;28;20055;-84
2023/09/23 13:19:32;;;;;;;2.72;1.13;;;;;;;;;;4978918;28;20086;-84
2023/09/23 13:21:58;;;;;;;3.55;1.17;;;;;;;;;;4961907;28;20083;-83
2023/09/23 13:24:28;;;;;;;2.55;1.00;;;;;;;;;;4946777;28;20162;-83
2023/09/23 13:26:54;;;;;;;4.40;1.48;;;;;;;;;;4972994;28;20478;-85
2023/09/23 13:29:20;;;;;;;3.20;1.10;;;;;;;;;;4931271;28;20117;-83
2023/09/23 13:31:46;;;;;;;4.10;1.40;;;;;;;;;;4963834;28;20051;-84
2023/09/23 13:34:11;;;;;;;2.83;1.20;;;;;;;;;;4945437;28;20053;-81
2023/09/23 13:36:37;;;;;;;2.88;1.20;;;;;;;;;;4946030;28;20058;-85
2023/09/23 13:39:03;;;;;;;2.55;0.93;;;;;;;;;;4945061;28;20047;-83
2023/09/23 13:41:30;;;;;;;2.65;1.17;;;;;;;;;;4955795;28;20039;-84
2023/09/23 13:43:56;;;;;;;3.40;1.30;;;;;;;;;;4963400;28;20047;-85
2023/09/23 13:46:22;;;;;;;3.33;1.30;;;;;;;;;;4945825;28;20047;-81
2023/09/23 13:48:48;;;;;;;3.03;1.15;;;;;;;;;;4946063;28;20053;-82
2023/09/23 13:51:15;;;;;;;5.47;1.42;;;;;;;;;;4961405;28;20129;-85
2023/09/23 13:53:44;;;;;;;3.90;1.27;;;;;;;;;;4945864;28;20043;-84
2023/09/23 13:56:10;;;;;;;3.50;1.10;;;;;;;;;;4974582;28;20510;-84
2023/09/23 13:58:36;;;;;;;2.75;1.00;;;;;;;;;;4949261;28;20054;-84
2023/09/23 14:01:02;;;;;;;3.45;1.30;;;;;;;;;;4944243;28;20105;-85
2023/09/23 14:03:29;;;;;;;6.13;1.52;;;;;;;;;;4946352;28;20050;-83
2023/09/23 14:05:55;;;;;;;3.08;1.10;;;;;;;;;;4956752;28;20051;-85
2023/09/23 14:08:21;;;;;;;3.65;1.02;;;;;;;;;;4962792;28;20146;-85
2023/09/23 14:10:47;;;;;;;4.63;1.20;;;;;;;;;;4945856;28;20677;-84
2023/09/23 14:13:13;;;;;;;4.28;1.20;;;;;;;;;;4961595;28;20057;-82
2023/09/23 14:15:39;;;;;;;2.40;1.17;;;;;;;;;;4964832;28;20050;-83
2023/09/23 14:18:05;;;;;;;4.68;1.30;;;;;;;;;;4961362;28;20681;-81
2023/09/23 14:20:31;;;;;;;3.47;1.20;;;;;;;;;;4978005;28;20043;-84
2023/09/23 14:22:58;;;;;;;2.90;0.93;;;;;;;;;;4944436;28;20047;-85
2023/09/23 14:25:24;;;;;;;2.92;0.90;;;;;;;;;;4957766;28;20059;-86
2023/09/23 14:27:50;;;;;;;1.85;1.20;;;;;;;;;;4973585;28;20514;-84
2023/09/23 14:30:18;;;;;;;2.72;1.13;;;;;;;;;;4961626;28;20039;-84
2023/09/23 14:32:44;;;;;;;4.75;1.55;;;;;;;;;;4973027;28;20113;-85